createdAt,value
2023-05-03T00:00:59.010Z,51.66
2023-05-03T00:01:59.712Z,53.49
2023-05-03T00:02:59.821Z,50.06
2023-05-03T00:03:27.032Z,46.96
2023-05-03T00:04:59.869Z,47.47
2023-05-03T00:05:59.341Z,46.42
2023-05-03T00:06:59.869Z,46.79
2023-05-03T00:07:59.872Z,48.43
2023-05-03T00:08:26.985Z,46.86
2023-05-03T00:10:00.115Z,57.13
2023-05-03T00:10:59.415Z,53.51
2023-05-03T00:11:58.944Z,45.91
2023-05-03T00:12:27.008Z,45.43
2023-05-03T00:13:26.993Z,46.02
2023-05-03T00:14:26.965Z,45.22
2023-05-03T00:15:26.967Z,51.26
2023-05-03T00:16:26.979Z,51.63
2023-05-03T00:17:26.973Z,51.95
2023-05-03T00:18:26.964Z,45.71
2023-05-03T00:19:31.561Z,51.04
2023-05-03T00:20:28.969Z,45.91
2023-05-03T00:21:26.924Z,51.19
2023-05-03T00:22:26.929Z,46.92
2023-05-03T00:23:26.907Z,46.17
2023-05-03T00:24:26.905Z,48.47
2023-05-03T00:25:26.883Z,46.68
2023-05-03T00:26:26.882Z,45.63
2023-05-03T00:27:26.898Z,49.47
2023-05-03T00:28:26.905Z,46.52
2023-05-03T00:29:26.847Z,45.65
2023-05-03T00:30:26.877Z,46.34
2023-05-03T00:31:26.890Z,46.67
2023-05-03T00:32:26.868Z,49.06
2023-05-03T00:33:26.873Z,51.59
2023-05-03T00:34:26.810Z,53.12
2023-05-03T00:35:26.814Z,51.77
2023-05-03T00:36:26.812Z,56.57
2023-05-03T00:37:26.798Z,54.27
2023-05-03T00:38:26.814Z,46.20
2023-05-03T00:39:26.816Z,45.89
2023-05-03T00:40:26.815Z,50.68
2023-05-03T00:41:26.789Z,54.75
2023-05-03T00:42:26.764Z,48.24
2023-05-03T00:43:26.750Z,46.83
2023-05-03T00:44:26.766Z,44.81
2023-05-03T00:45:26.748Z,51.07
2023-05-03T00:46:26.737Z,47.29
2023-05-03T00:47:26.751Z,46.35
2023-05-03T00:48:26.748Z,55.30
2023-05-03T00:49:26.745Z,55.01
2023-05-03T00:50:26.714Z,53.80
2023-05-03T00:51:26.700Z,61.32
2023-05-03T00:52:26.707Z,54.62
2023-05-03T00:53:26.672Z,51.84
2023-05-03T00:54:26.670Z,63.49
2023-05-03T00:55:26.678Z,61.86
2023-05-03T00:56:26.658Z,53.22
2023-05-03T00:57:26.659Z,53.53
2023-05-03T00:58:26.682Z,61.99
2023-05-03T00:59:26.651Z,48.71
2023-05-03T01:00:26.664Z,58.16
2023-05-03T01:01:26.671Z,47.72
2023-05-03T01:02:26.690Z,52.38
2023-05-03T01:03:26.794Z,55.25
2023-05-03T01:04:26.619Z,50.59
2023-05-03T01:05:26.617Z,46.23
2023-05-03T01:06:26.675Z,51.36
2023-05-03T01:07:26.598Z,52.07
2023-05-03T01:08:26.611Z,47.24
2023-05-03T01:09:26.585Z,52.29
2023-05-03T01:10:26.553Z,50.32
2023-05-03T01:11:28.548Z,46.85
2023-05-03T01:12:26.579Z,49.81
2023-05-03T01:13:26.549Z,48.55
2023-05-03T01:14:26.536Z,53.30
2023-05-03T01:15:26.563Z,47.98
2023-05-03T01:16:26.536Z,54.94
2023-05-03T01:17:27.566Z,55.05
2023-05-03T01:18:26.505Z,51.38
2023-05-03T01:19:26.510Z,46.80
2023-05-03T01:20:26.492Z,56.11
2023-05-03T01:21:26.476Z,55.49
2023-05-03T01:22:26.489Z,46.69
2023-05-03T01:23:26.475Z,57.15
2023-05-03T01:24:26.503Z,47.13
2023-05-03T01:25:26.456Z,47.13
2023-05-03T01:26:26.438Z,47.77
2023-05-03T01:27:26.471Z,53.60
2023-05-03T01:28:26.471Z,51.94
2023-05-03T01:29:26.412Z,47.11
2023-05-03T01:30:26.422Z,46.26
2023-05-03T01:31:26.512Z,53.73
2023-05-03T01:32:26.447Z,49.77
2023-05-03T01:33:26.378Z,46.68
2023-05-03T01:34:26.386Z,50.28
2023-05-03T01:35:26.362Z,49.81
2023-05-03T01:36:26.350Z,46.91
2023-05-03T01:37:26.364Z,66.50
2023-05-03T01:38:26.360Z,47.37
2023-05-03T01:39:26.339Z,53.33
2023-05-03T01:40:26.312Z,49.64
2023-05-03T01:41:26.319Z,57.08
2023-05-03T01:42:26.330Z,49.41
2023-05-03T01:43:26.346Z,51.33
2023-05-03T01:44:26.331Z,53.02
2023-05-03T01:45:26.297Z,48.83
2023-05-03T01:46:26.413Z,52.54
2023-05-03T01:47:26.302Z,56.39
2023-05-03T01:48:26.280Z,46.40
2023-05-03T01:49:26.298Z,52.44
2023-05-03T01:50:26.279Z,46.62
2023-05-03T01:51:26.294Z,46.82
2023-05-03T01:52:26.238Z,52.53
2023-05-03T01:53:26.225Z,45.14
2023-05-03T01:54:27.294Z,53.02
2023-05-03T01:55:26.211Z,47.66
2023-05-03T01:56:26.219Z,46.54
2023-05-03T01:57:26.220Z,47.23
2023-05-03T01:58:26.210Z,51.87
2023-05-03T01:59:26.216Z,58.69
2023-05-03T02:00:26.211Z,46.90
2023-05-03T02:01:26.197Z,45.70
2023-05-03T02:02:26.217Z,45.98
2023-05-03T02:03:26.156Z,45.82
2023-05-03T02:04:26.209Z,46.71
2023-05-03T02:05:26.173Z,47.08
2023-05-03T02:06:26.253Z,51.13
2023-05-03T02:07:26.155Z,51.53
2023-05-03T02:08:26.112Z,50.42
2023-05-03T02:09:26.119Z,51.76
2023-05-03T02:10:26.104Z,48.46
2023-05-03T02:11:26.086Z,57.84
2023-05-03T02:12:26.108Z,50.42
2023-05-03T02:13:26.069Z,50.26
2023-05-03T02:14:26.060Z,49.96
2023-05-03T02:15:26.070Z,51.24
2023-05-03T02:16:26.096Z,52.17
2023-05-03T02:17:26.093Z,53.19
2023-05-03T02:18:26.059Z,50.48
2023-05-03T02:19:26.040Z,46.33
2023-05-03T02:20:26.009Z,53.25
2023-05-03T02:21:26.056Z,54.25
2023-05-03T02:22:26.022Z,57.73
2023-05-03T02:23:25.997Z,47.23
2023-05-03T02:24:26.004Z,47.22
2023-05-03T02:25:27.458Z,54.09
2023-05-03T02:26:25.990Z,47.12
2023-05-03T02:27:26.003Z,57.52
2023-05-03T02:28:25.957Z,51.62
2023-05-03T02:29:25.942Z,46.89
2023-05-03T02:30:25.965Z,49.97
2023-05-03T02:31:26.029Z,51.87
2023-05-03T02:32:25.987Z,48.93
2023-05-03T02:33:25.904Z,53.80
2023-05-03T02:34:25.952Z,46.69
2023-05-03T02:35:25.909Z,51.82
2023-05-03T02:36:25.899Z,52.84
2023-05-03T02:37:25.901Z,53.62
2023-05-03T02:38:25.912Z,48.63
2023-05-03T02:39:25.891Z,48.48
2023-05-03T02:40:25.845Z,53.56
2023-05-03T02:41:25.838Z,57.50
2023-05-03T02:42:25.864Z,58.27
2023-05-03T02:43:25.842Z,54.27
2023-05-03T02:44:25.857Z,62.92
2023-05-03T02:45:25.829Z,55.27
2023-05-03T02:46:25.875Z,58.58
2023-05-03T02:47:26.646Z,59.93
2023-05-03T02:48:57.751Z,57.57
2023-05-03T02:49:25.823Z,53.03
2023-05-03T02:50:25.778Z,58.00
2023-05-03T02:51:25.774Z,57.70
2023-05-03T02:52:25.770Z,56.00
2023-05-03T02:53:25.755Z,57.75
2023-05-03T02:54:25.774Z,59.78
2023-05-03T02:55:25.736Z,56.85
2023-05-03T02:56:25.748Z,55.58
2023-05-03T02:57:25.769Z,55.76
2023-05-03T02:58:25.756Z,59.00
2023-05-03T02:59:26.630Z,54.91
2023-05-03T03:00:25.756Z,51.80
2023-05-03T03:01:25.728Z,56.71
2023-05-03T03:02:25.753Z,62.28
2023-05-03T03:03:25.833Z,61.96
2023-05-03T03:04:25.668Z,56.16
2023-05-03T03:05:25.675Z,62.44
2023-05-03T03:06:25.720Z,63.40
2023-05-03T03:07:25.659Z,58.93
2023-05-03T03:08:26.665Z,62.19
2023-05-03T03:09:58.493Z,62.40
2023-05-03T03:10:25.663Z,54.28
2023-05-03T03:11:25.619Z,57.27
2023-05-03T03:12:25.607Z,62.36
2023-05-03T03:13:25.596Z,64.44
2023-05-03T03:14:25.605Z,56.49
2023-05-03T03:15:25.587Z,55.82
2023-05-03T03:16:25.648Z,60.60
2023-05-03T03:17:26.130Z,59.23
2023-05-03T03:18:25.553Z,65.35
2023-05-03T03:19:25.566Z,59.72
2023-05-03T03:20:25.588Z,65.25
2023-05-03T03:21:26.105Z,63.44
2023-05-03T03:22:25.579Z,63.50
2023-05-03T03:23:25.530Z,61.66
2023-05-03T03:24:25.522Z,65.52
2023-05-03T03:25:25.529Z,64.77
2023-05-03T03:26:26.102Z,62.74
2023-05-03T03:27:25.520Z,55.01
2023-05-03T03:28:25.529Z,60.96
2023-05-03T03:29:25.538Z,61.54
2023-05-03T03:30:25.469Z,62.37
2023-05-03T03:31:57.524Z,64.26
2023-05-03T03:32:25.457Z,57.82
2023-05-03T03:33:25.558Z,56.72
2023-05-03T03:34:25.477Z,63.30
2023-05-03T03:35:25.486Z,67.88
2023-05-03T03:36:25.432Z,64.35
2023-05-03T03:37:25.503Z,65.09
2023-05-03T03:38:25.427Z,65.62
2023-05-03T03:39:25.453Z,67.39
2023-05-03T03:40:25.484Z,65.67
2023-05-03T03:41:26.145Z,61.64
2023-05-03T03:42:25.388Z,67.16
2023-05-03T03:43:26.151Z,68.44
2023-05-03T03:44:25.675Z,64.91
2023-05-03T03:45:25.381Z,69.18
2023-05-03T03:46:25.405Z,64.46
2023-05-03T04:03:36.197Z,64.61
2023-05-03T04:04:36.179Z,59.69
2023-05-03T04:05:36.068Z,62.01
2023-05-03T04:06:36.112Z,64.07
2023-05-03T04:07:36.067Z,58.73
2023-05-03T04:08:37.191Z,65.56
2023-05-03T04:09:37.787Z,68.72
2023-05-03T04:10:37.183Z,68.19
2023-05-03T04:11:37.172Z,63.20
2023-05-03T04:12:37.167Z,70.35
2023-05-03T04:13:37.142Z,64.80
2023-05-03T04:14:37.192Z,68.50
2023-05-03T04:15:37.141Z,65.75
2023-05-03T04:16:37.148Z,63.00
2023-05-03T04:17:37.157Z,64.83
2023-05-03T04:18:37.132Z,68.41
2023-05-03T04:19:37.113Z,67.42
2023-05-03T04:20:37.122Z,61.01
2023-05-03T04:21:37.097Z,68.36
2023-05-03T04:22:37.101Z,65.55
2023-05-03T04:23:37.092Z,69.85
2023-05-03T04:24:37.060Z,66.81
2023-05-03T04:25:37.069Z,61.77
2023-05-03T04:26:37.060Z,71.52
2023-05-03T04:27:37.088Z,69.84
2023-05-03T04:28:37.040Z,70.11
2023-05-03T04:29:37.049Z,68.52
2023-05-03T04:30:37.078Z,62.22
2023-05-03T04:31:36.993Z,66.02
2023-05-03T04:32:37.091Z,72.44
2023-05-03T04:33:37.058Z,66.21
2023-05-03T04:34:37.010Z,66.24
2023-05-03T04:35:36.984Z,66.38
2023-05-03T04:36:36.958Z,73.21
2023-05-03T04:37:36.982Z,67.75
2023-05-03T04:38:36.986Z,66.38
2023-05-03T04:39:36.993Z,72.21
2023-05-03T04:40:36.937Z,65.36
2023-05-03T04:41:36.943Z,73.37
2023-05-03T04:42:36.985Z,69.42
2023-05-03T04:43:36.930Z,69.90
2023-05-03T04:44:36.923Z,69.25
2023-05-03T04:45:36.929Z,68.78
2023-05-03T04:46:37.022Z,69.56
2023-05-03T04:47:36.962Z,66.97
2023-05-03T04:48:36.885Z,69.20
2023-05-03T04:49:36.921Z,71.98
2023-05-03T04:50:36.882Z,68.94
2023-05-03T04:51:36.898Z,73.73
2023-05-03T04:52:36.844Z,71.15
2023-05-03T04:53:36.854Z,70.29
2023-05-03T04:54:36.853Z,70.87
2023-05-03T04:55:36.860Z,67.37
2023-05-03T04:56:36.836Z,64.59
2023-05-03T04:57:36.849Z,71.28
2023-05-03T04:58:36.887Z,67.76
2023-05-03T04:59:36.796Z,67.27
2023-05-03T05:00:36.824Z,70.60
2023-05-03T05:01:36.823Z,65.67
2023-05-03T05:02:36.837Z,73.40
2023-05-03T05:03:36.815Z,65.68
2023-05-03T05:04:36.759Z,73.12
2023-05-03T05:05:36.771Z,72.43
2023-05-03T05:06:36.784Z,72.35
2023-05-03T05:07:36.740Z,62.10
2023-05-03T05:08:36.717Z,69.21
2023-05-03T05:09:36.697Z,69.23
2023-05-03T05:10:36.729Z,70.20
2023-05-03T05:11:36.721Z,68.15
2023-05-03T05:12:36.704Z,72.44
2023-05-03T05:13:36.690Z,70.14
2023-05-03T05:14:36.688Z,69.86
2023-05-03T05:15:36.701Z,68.03
2023-05-03T05:16:36.833Z,68.09
2023-05-03T05:17:36.745Z,70.27
2023-05-03T05:18:36.713Z,68.14
2023-05-03T05:19:36.641Z,67.76
2023-05-03T05:20:36.611Z,72.94
2023-05-03T05:21:36.734Z,70.41
2023-05-03T05:22:36.645Z,70.00
2023-05-03T05:23:36.594Z,72.06
2023-05-03T05:24:36.584Z,69.99
2023-05-03T05:25:36.594Z,70.94
2023-05-03T05:26:36.589Z,71.66
2023-05-03T05:27:36.594Z,73.06
2023-05-03T05:28:36.580Z,67.93
2023-05-03T05:29:36.557Z,72.61
2023-05-03T05:30:36.560Z,72.80
2023-05-03T05:31:37.316Z,69.74
2023-05-03T05:32:36.769Z,69.90
2023-05-03T05:33:36.553Z,72.56
2023-05-03T05:34:43.902Z,69.75
2023-05-03T05:35:38.510Z,70.64
2023-05-03T05:36:36.514Z,68.96
2023-05-03T05:37:36.539Z,71.54
2023-05-03T05:38:36.532Z,72.49
2023-05-03T05:39:36.488Z,71.26
2023-05-03T05:40:36.492Z,69.27
2023-05-03T05:41:36.486Z,65.40
2023-05-03T05:42:36.463Z,73.35
2023-05-03T05:43:36.444Z,71.02
2023-05-03T05:44:36.448Z,66.60
2023-05-03T05:45:36.417Z,68.92
2023-05-03T05:46:36.461Z,72.98
2023-05-03T05:47:36.446Z,71.10
2023-05-03T05:48:36.437Z,70.00
2023-05-03T05:49:36.414Z,67.37
2023-05-03T05:50:36.393Z,71.82
2023-05-03T05:51:36.417Z,69.04
2023-05-03T05:52:36.385Z,69.56
2023-05-03T05:53:36.383Z,70.92
2023-05-03T05:54:36.357Z,72.77
2023-05-03T05:55:36.375Z,67.09
2023-05-03T05:56:36.349Z,71.31
2023-05-03T05:57:36.860Z,70.16
2023-05-03T05:58:36.341Z,70.97
2023-05-03T05:59:36.333Z,72.11
2023-05-03T06:00:36.328Z,67.34
2023-05-03T06:01:36.311Z,68.48
2023-05-03T06:02:36.454Z,69.08
2023-05-03T06:03:36.307Z,73.33
2023-05-03T06:04:36.311Z,68.04
2023-05-03T06:05:36.456Z,71.17
2023-05-03T06:06:36.316Z,67.84
2023-05-03T06:07:36.284Z,69.49
2023-05-03T06:08:36.256Z,70.94
2023-05-03T06:09:36.264Z,65.84
2023-05-03T06:10:36.250Z,70.44
2023-05-03T06:11:36.263Z,71.80
2023-05-03T06:12:36.218Z,69.71
2023-05-03T06:13:36.280Z,72.74
2023-05-03T06:14:36.225Z,69.12
2023-05-03T06:15:36.247Z,68.32
2023-05-03T06:16:36.210Z,67.89
2023-05-03T06:17:36.247Z,72.33
2023-05-03T06:18:36.209Z,70.32
2023-05-03T06:19:36.184Z,66.96
2023-05-03T06:20:36.167Z,67.25
2023-05-03T06:21:37.154Z,65.29
2023-05-03T06:22:36.810Z,70.57
2023-05-03T06:23:36.193Z,61.14
2023-05-03T06:24:36.184Z,67.97
2023-05-03T06:25:36.200Z,69.65
2023-05-03T06:26:36.199Z,69.84
2023-05-03T06:27:36.125Z,71.74
2023-05-03T06:28:36.110Z,67.68
2023-05-03T06:29:36.158Z,61.07
2023-05-03T06:30:36.097Z,67.67
2023-05-03T06:31:36.169Z,71.28
2023-05-03T06:32:36.135Z,67.44
2023-05-03T06:33:36.070Z,67.24
2023-05-03T06:34:36.060Z,67.80
2023-05-03T06:35:36.056Z,69.48
2023-05-03T06:36:36.050Z,62.92
2023-05-03T06:37:36.079Z,68.50
2023-05-03T06:38:36.051Z,69.33
2023-05-03T06:39:36.025Z,68.14
2023-05-03T06:40:38.303Z,66.53
2023-05-03T06:41:36.007Z,62.53
2023-05-03T06:42:36.014Z,66.46
2023-05-03T06:43:36.008Z,63.88
2023-05-03T06:44:35.980Z,69.59
2023-05-03T06:45:35.986Z,69.60
2023-05-03T06:46:36.039Z,71.14
2023-05-03T06:47:36.007Z,67.37
2023-05-03T06:48:36.016Z,68.27
2023-05-03T06:49:35.957Z,63.13
2023-05-03T06:50:36.016Z,66.97
2023-05-03T06:51:36.739Z,66.96
2023-05-03T06:52:35.936Z,65.03
2023-05-03T06:53:35.985Z,66.06
2023-05-03T06:54:35.920Z,66.04
2023-05-03T06:55:35.898Z,69.69
2023-05-03T06:56:35.891Z,63.76
2023-05-03T06:57:35.897Z,63.52
2023-05-03T06:58:35.878Z,66.78
2023-05-03T06:59:35.868Z,69.32
2023-05-03T07:00:35.884Z,68.70
2023-05-03T07:01:35.911Z,66.59
2023-05-03T07:02:35.933Z,63.35
2023-05-03T07:03:35.881Z,56.65
2023-05-03T07:04:35.855Z,70.10
2023-05-03T07:05:35.862Z,66.07
2023-05-03T07:06:48.145Z,67.76
2023-05-03T07:07:37.823Z,58.81
2023-05-03T07:08:35.805Z,71.11
2023-05-03T07:09:42.795Z,58.05
2023-05-03T07:10:37.811Z,68.82
2023-05-03T07:11:35.783Z,67.64
2023-05-03T07:12:35.768Z,63.16
2023-05-03T07:13:35.764Z,71.31
2023-05-03T07:14:35.812Z,66.40
2023-05-03T07:15:35.796Z,62.93
2023-05-03T07:16:35.822Z,64.45
2023-05-03T07:17:35.789Z,60.15
2023-05-03T07:18:35.743Z,66.39
2023-05-03T07:19:35.721Z,66.50
2023-05-03T07:20:35.777Z,68.89
2023-05-03T07:21:35.755Z,63.96
2023-05-03T07:22:35.709Z,59.25
2023-05-03T07:23:35.707Z,69.12
2023-05-03T07:24:35.701Z,62.82
2023-05-03T07:25:35.690Z,69.95
2023-05-03T07:26:35.676Z,67.40
2023-05-03T07:27:35.660Z,61.86
2023-05-03T07:28:35.650Z,66.71
2023-05-03T07:29:36.651Z,68.74
2023-05-03T07:30:35.724Z,61.74
2023-05-03T07:31:35.638Z,68.58
2023-05-03T07:32:35.775Z,66.99
2023-05-03T07:33:35.673Z,67.69
2023-05-03T07:34:35.605Z,65.31
2023-05-03T07:35:35.637Z,66.78
2023-05-03T07:36:35.638Z,66.30
2023-05-03T07:37:35.646Z,67.27
2023-05-03T07:38:35.592Z,64.80
2023-05-03T07:39:35.600Z,64.54
2023-05-03T07:40:35.576Z,66.69
2023-05-03T07:41:35.557Z,67.11
2023-05-03T07:42:35.556Z,66.61
2023-05-03T07:43:35.599Z,65.82
2023-05-03T07:44:35.568Z,66.75
2023-05-03T07:45:35.576Z,65.34
2023-05-03T07:46:35.694Z,67.85
2023-05-03T07:47:35.549Z,66.78
2023-05-03T07:48:35.518Z,63.43
2023-05-03T07:49:35.569Z,65.80
2023-05-03T07:50:35.532Z,64.88
2023-05-03T07:51:35.531Z,65.67
2023-05-03T07:52:35.488Z,66.59
2023-05-03T07:53:35.487Z,64.09
2023-05-03T07:54:35.521Z,70.08
2023-05-03T07:55:35.476Z,68.06
2023-05-03T07:56:35.490Z,67.78
2023-05-03T07:57:35.477Z,65.96
2023-05-03T07:58:40.750Z,69.32
2023-05-03T07:59:37.436Z,64.16
2023-05-03T08:00:35.453Z,70.18
2023-05-03T08:01:35.457Z,67.86
2023-05-03T08:02:35.533Z,64.91
2023-05-03T08:03:35.627Z,68.31
2023-05-03T08:04:35.517Z,64.46
2023-05-03T08:05:35.407Z,63.14
2023-05-03T08:06:35.511Z,66.26
2023-05-03T08:07:35.369Z,66.38
2023-05-03T08:08:35.439Z,64.98
2023-05-03T08:09:35.381Z,59.65
2023-05-03T08:10:35.356Z,69.20
2023-05-03T08:11:35.337Z,66.45
2023-05-03T08:12:35.360Z,64.74
2023-05-03T08:13:35.367Z,68.57
2023-05-03T08:14:35.331Z,64.17
2023-05-03T08:15:35.372Z,68.61
2023-05-03T08:16:35.322Z,66.71
2023-05-03T08:17:35.356Z,61.12
2023-05-03T08:18:35.317Z,63.74
2023-05-03T08:19:35.317Z,61.21
2023-05-03T08:20:35.327Z,64.87
2023-05-03T08:21:35.264Z,67.29
2023-05-03T08:22:35.265Z,66.32
2023-05-03T08:23:35.274Z,66.08
2023-05-03T08:24:35.314Z,60.57
2023-05-03T08:25:35.261Z,67.28
2023-05-03T08:26:35.241Z,62.49
2023-05-03T08:27:35.246Z,69.40
2023-05-03T08:28:35.227Z,67.14
2023-05-03T08:29:35.222Z,62.47
2023-05-03T08:30:35.201Z,65.52
2023-05-03T08:31:35.337Z,63.82
2023-05-03T08:32:35.273Z,60.03
2023-05-03T08:33:35.169Z,60.48
2023-05-03T08:34:35.180Z,71.07
2023-05-03T08:35:35.154Z,66.68
2023-05-03T08:36:35.173Z,66.86
2023-05-03T08:37:35.174Z,68.55
2023-05-03T08:38:35.142Z,64.69
2023-05-03T08:39:35.154Z,68.87
2023-05-03T08:40:35.162Z,69.36
2023-05-03T08:41:35.189Z,67.25
2023-05-03T08:42:35.135Z,64.72
2023-05-03T08:43:35.104Z,62.38
2023-05-03T08:44:35.080Z,67.58
2023-05-03T08:45:35.092Z,65.10
2023-05-03T08:46:35.133Z,66.62
2023-05-03T08:47:35.117Z,61.85
2023-05-03T08:48:35.055Z,61.59
2023-05-03T08:49:35.074Z,63.27
2023-05-03T08:50:35.096Z,67.80
2023-05-03T08:51:35.061Z,69.51
2023-05-03T08:52:35.031Z,68.66
2023-05-03T08:53:35.045Z,68.07
2023-05-03T08:54:35.046Z,65.85
2023-05-03T08:55:35.034Z,61.93
2023-05-03T08:56:35.004Z,64.74
2023-05-03T08:57:34.992Z,64.08
2023-05-03T08:58:35.010Z,64.68
2023-05-03T08:59:34.978Z,63.08
2023-05-03T09:00:34.999Z,70.10
2023-05-03T09:01:34.983Z,68.48
2023-05-03T09:02:35.231Z,62.30
2023-05-03T09:03:35.144Z,62.99
2023-05-03T09:04:35.131Z,62.37
2023-05-03T09:05:34.984Z,70.14
2023-05-03T09:06:34.978Z,64.39
2023-05-03T09:07:34.944Z,68.98
2023-05-03T09:08:34.911Z,67.39
2023-05-03T09:09:34.941Z,65.77
2023-05-03T09:10:34.897Z,66.44
2023-05-03T09:11:34.890Z,65.33
2023-05-03T09:12:34.898Z,64.76
2023-05-03T09:13:34.902Z,64.27
2023-05-03T09:14:34.902Z,63.35
2023-05-03T09:15:34.866Z,64.38
2023-05-03T09:16:34.874Z,59.67
2023-05-03T09:17:34.870Z,60.89
2023-05-03T09:18:35.863Z,69.24
2023-05-03T09:19:34.867Z,69.42
2023-05-03T09:20:34.835Z,68.29
2023-05-03T09:22:08.261Z,61.27
2023-05-03T09:24:41.427Z,65.56
2023-05-03T09:25:42.589Z,67.01
2023-05-03T09:26:42.543Z,64.62
2023-05-03T09:27:42.523Z,64.12
2023-05-03T09:28:42.496Z,64.36
2023-05-03T09:29:42.526Z,69.54
2023-05-03T09:30:42.454Z,54.15
2023-05-03T09:31:42.542Z,61.86
2023-05-03T09:32:42.608Z,62.05
2023-05-03T09:33:42.469Z,64.45
2023-05-03T09:34:42.447Z,66.39
2023-05-03T09:35:42.462Z,64.77
2023-05-03T09:36:44.000Z,67.01
2023-05-03T09:37:43.453Z,65.99
2023-05-03T09:38:43.025Z,64.84
2023-05-03T09:39:42.427Z,67.24
2023-05-03T09:40:42.407Z,65.78
2023-05-03T09:41:42.420Z,66.43
2023-05-03T09:42:42.427Z,65.73
2023-05-03T09:43:42.401Z,57.92
2023-05-03T09:44:42.415Z,68.69
2023-05-03T09:45:42.425Z,63.21
2023-05-03T09:46:42.412Z,67.31
2023-05-03T09:47:42.403Z,64.55
2023-05-03T09:48:42.359Z,61.00
2023-05-03T09:49:42.347Z,66.12
2023-05-03T09:50:42.340Z,69.09
2023-05-03T09:51:42.343Z,63.87
2023-05-03T09:52:42.396Z,61.68
2023-05-03T09:53:42.336Z,66.42
2023-05-03T09:54:42.427Z,60.32
2023-05-03T09:55:42.364Z,65.10
2023-05-03T09:56:42.310Z,63.33
2023-05-03T09:57:42.288Z,63.75
2023-05-03T09:58:42.297Z,62.87
2023-05-03T09:59:42.262Z,64.34
2023-05-03T10:00:42.255Z,65.42
2023-05-03T10:01:42.309Z,64.64
2023-05-03T10:02:42.292Z,60.14
2023-05-03T10:03:42.269Z,67.71
2023-05-03T10:04:42.234Z,63.26
2023-05-03T10:05:42.243Z,64.60
2023-05-03T10:06:42.296Z,61.73
2023-05-03T10:07:42.268Z,61.05
2023-05-03T10:08:42.224Z,65.17
2023-05-03T10:09:42.244Z,60.97
2023-05-03T10:10:42.182Z,66.30
2023-05-03T10:11:42.216Z,65.57
2023-05-03T10:12:42.186Z,61.80
2023-05-03T10:13:42.199Z,67.75
2023-05-03T10:14:42.213Z,65.70
2023-05-03T10:15:42.164Z,65.71
2023-05-03T10:16:42.158Z,65.46
2023-05-03T10:18:43.144Z,62.53
2023-05-03T10:19:42.155Z,66.39
2023-05-03T10:20:42.149Z,60.29
2023-05-03T10:21:42.102Z,66.16
2023-05-03T10:22:42.090Z,64.89
2023-05-03T10:23:42.143Z,65.75
2023-05-03T10:24:42.140Z,65.23
2023-05-03T10:25:42.126Z,59.88
2023-05-03T10:26:42.086Z,62.91
2023-05-03T10:27:42.107Z,66.12
2023-05-03T10:28:42.084Z,66.24
2023-05-03T10:29:42.066Z,57.47
2023-05-03T10:30:42.108Z,61.54
2023-05-03T10:31:42.135Z,66.42
2023-05-03T10:32:42.099Z,62.13
2023-05-03T10:33:42.034Z,59.72
2023-05-03T10:34:42.772Z,67.07
2023-05-03T10:35:42.050Z,56.26
2023-05-03T10:36:49.328Z,67.15
2023-05-03T10:37:44.021Z,67.48
2023-05-03T10:38:41.990Z,62.98
2023-05-03T10:39:41.986Z,68.44
2023-05-03T10:40:42.051Z,59.97
2023-05-03T10:41:42.064Z,69.35
2023-05-03T10:42:41.959Z,63.24
2023-05-03T10:43:41.957Z,60.61
2023-05-03T10:44:42.042Z,56.65
2023-05-03T10:45:41.947Z,70.25
2023-05-03T10:46:42.059Z,67.06
2023-05-03T10:47:42.041Z,67.04
2023-05-03T10:48:41.938Z,64.72
2023-05-03T10:49:41.913Z,66.54
2023-05-03T10:50:41.959Z,67.37
2023-05-03T10:51:41.943Z,66.91
2023-05-03T10:52:41.921Z,57.91
2023-05-03T10:53:41.869Z,68.40
2023-05-03T10:54:41.877Z,65.14
2023-05-03T10:55:41.854Z,69.38
2023-05-03T10:56:41.866Z,65.21
2023-05-03T10:57:41.862Z,69.33
2023-05-03T10:58:41.815Z,67.80
2023-05-03T10:59:41.823Z,70.48
2023-05-03T11:00:41.806Z,61.90
2023-05-03T11:01:41.847Z,60.06
2023-05-03T11:02:41.807Z,67.86
2023-05-03T11:03:41.825Z,61.86
2023-05-03T11:04:41.881Z,61.86
2023-05-03T11:05:41.816Z,63.99
2023-05-03T11:06:41.869Z,64.88
2023-05-03T11:07:41.755Z,65.55
2023-05-03T11:08:41.789Z,62.56
2023-05-03T11:09:41.740Z,60.91
2023-05-03T11:10:41.762Z,70.38
2023-05-03T11:11:41.716Z,66.93
2023-05-03T11:12:42.719Z,66.94
2023-05-03T11:13:41.741Z,64.57
2023-05-03T11:14:41.717Z,60.37
2023-05-03T11:15:41.701Z,64.68
2023-05-03T11:16:41.793Z,61.38
2023-05-03T11:17:41.709Z,67.86
2023-05-03T11:18:41.650Z,68.80
2023-05-03T11:19:42.705Z,66.60
2023-05-03T11:20:42.691Z,66.83
2023-05-03T11:21:42.564Z,62.82
2023-05-03T11:22:41.652Z,68.60
2023-05-03T11:23:41.685Z,61.18
2023-05-03T11:24:41.657Z,66.97
2023-05-03T11:25:41.618Z,70.27
2023-05-03T11:26:41.621Z,63.23
2023-05-03T11:27:41.593Z,65.52
2023-05-03T11:28:41.585Z,65.10
2023-05-03T11:29:41.689Z,69.24
2023-05-03T11:30:41.562Z,61.69
2023-05-03T11:31:41.581Z,67.81
2023-05-03T11:32:41.593Z,66.17
2023-05-03T11:33:41.554Z,67.25
2023-05-03T11:34:41.570Z,66.00
2023-05-03T11:35:41.540Z,69.30
2023-05-03T11:36:41.578Z,69.70
2023-05-03T11:37:41.512Z,66.72
2023-05-03T11:38:41.502Z,63.56
2023-05-03T11:39:41.537Z,68.40
2023-05-03T11:40:41.498Z,67.79
2023-05-03T11:41:41.502Z,65.35
2023-05-03T11:42:41.528Z,68.83
2023-05-03T11:43:41.485Z,67.02
2023-05-03T11:44:41.482Z,67.58
2023-05-03T11:45:41.718Z,67.26
2023-05-03T11:46:41.586Z,66.56
2023-05-03T11:47:41.539Z,67.24
2023-05-03T11:48:41.486Z,65.80
2023-05-03T11:49:41.434Z,60.33
2023-05-03T11:50:41.438Z,66.77
2023-05-03T11:51:41.398Z,66.54
2023-05-03T11:52:41.468Z,64.14
2023-05-03T11:53:41.401Z,69.57
2023-05-03T11:54:41.388Z,62.22
2023-05-03T11:55:41.375Z,64.72
2023-05-03T11:56:41.414Z,65.73
2023-05-03T11:57:41.396Z,53.02
2023-05-03T11:58:41.432Z,65.21
2023-05-03T11:59:41.377Z,63.88
2023-05-03T12:00:41.357Z,66.45
2023-05-03T12:01:41.478Z,67.85
2023-05-03T12:02:41.571Z,67.31
2023-05-03T12:03:41.500Z,57.81
2023-05-03T12:04:42.107Z,61.63
2023-05-03T12:05:41.690Z,68.62
2023-05-03T12:06:43.724Z,64.69
2023-05-03T12:07:44.070Z,68.13
2023-05-03T12:08:43.244Z,59.83
2023-05-03T12:09:45.073Z,63.57
2023-05-03T12:10:43.148Z,69.12
2023-05-03T12:11:43.362Z,64.55
2023-05-03T12:12:44.082Z,66.44
2023-05-03T12:13:44.223Z,61.00
2023-05-03T12:14:41.916Z,69.44
2023-05-03T12:15:41.877Z,67.09
2023-05-03T12:16:41.342Z,65.74
2023-05-03T12:17:44.111Z,63.67
2023-05-03T12:18:42.373Z,66.77
2023-05-03T12:19:43.581Z,64.00
2023-05-03T12:21:43.539Z,66.35
2023-05-03T12:22:41.492Z,68.84
2023-05-03T12:23:41.280Z,69.95
2023-05-03T12:24:41.481Z,68.84
2023-05-03T12:25:44.449Z,66.31
2023-05-03T12:26:42.367Z,68.79
2023-05-03T12:27:41.240Z,67.33
2023-05-03T12:28:41.273Z,65.81
2023-05-03T12:29:41.875Z,68.55
2023-05-03T12:30:41.379Z,65.70
2023-05-03T12:31:43.929Z,61.02
2023-05-03T12:32:44.039Z,69.05
2023-05-03T12:33:43.529Z,64.64
2023-05-03T12:34:42.174Z,69.38
2023-05-03T12:35:41.552Z,68.92
2023-05-03T12:36:44.333Z,64.13
2023-05-03T12:37:43.663Z,61.87
2023-05-03T12:38:43.684Z,67.47
2023-05-03T12:39:45.587Z,65.94
2023-05-03T12:40:43.642Z,69.57
2023-05-03T12:42:06.042Z,66.08
2023-05-03T12:42:43.574Z,59.11
2023-05-03T12:43:43.622Z,69.05
2023-05-03T12:44:43.308Z,66.28
2023-05-03T12:45:46.870Z,64.36
2023-05-03T12:46:45.253Z,67.07
2023-05-03T12:47:44.461Z,69.65
2023-05-03T12:48:46.130Z,69.74
2023-05-03T12:49:45.662Z,67.02
2023-05-03T12:50:45.257Z,65.73
2023-05-03T12:51:42.945Z,66.72
2023-05-03T12:53:45.471Z,57.93
2023-05-03T12:54:42.466Z,61.98
2023-05-03T12:55:43.931Z,67.19
2023-05-03T12:56:42.405Z,65.39
2023-05-03T12:57:43.149Z,62.11
2023-05-03T12:58:58.399Z,67.17
2023-05-03T12:59:43.640Z,66.60
2023-05-03T13:03:44.624Z,67.82
2023-05-03T13:04:57.679Z,68.15
2023-05-03T13:05:43.368Z,65.86
2023-05-03T13:06:43.208Z,64.88
2023-05-03T13:07:43.361Z,66.10
2023-05-03T13:08:49.366Z,68.47
2023-05-03T13:10:42.946Z,67.32
2023-05-03T13:11:40.985Z,68.98
2023-05-03T13:12:40.826Z,67.01
2023-05-03T13:13:40.825Z,65.23
2023-05-03T13:14:40.919Z,65.38
2023-05-03T13:15:40.791Z,68.08
2023-05-03T13:16:40.824Z,66.68
2023-05-03T13:17:40.811Z,67.56